Time;durP1;ratioP1;P1;durP2;ratioP2;P2;SDS_P1;SDS_P2;PMS_P1;PMS_P2;Temp;Humidity;BMP_temperature;BMP_pressure;BME280_temperature;BME280_humidity;BME280_pressure;Samples;Min_cycle;Max_cycle;Signal;HPM_P1;HPM_P2
2022/08/22 00:00:22;;;;;;;5.47;3.40;;;19.60;99.90;;;;;;5049437;28;20246;-69
2022/08/22 00:03:02;;;;;;;5.17;3.43;;;19.60;99.90;;;;;;5050095;28;20298;-68
2022/08/22 00:05:37;;;;;;;4.00;3.40;;;19.60;99.90;;;;;;5050114;28;20192;-68
2022/08/22 00:08:09;;;;;;;5.30;3.77;;;19.50;99.90;;;;;;5049891;28;20199;-67
2022/08/22 00:10:50;;;;;;;3.67;3.33;;;19.50;99.90;;;;;;5050169;28;20196;-67
2022/08/22 00:13:23;;;;;;;4.90;3.13;;;19.50;99.90;;;;;;5050203;28;20630;-68
2022/08/22 00:15:57;;;;;;;3.70;3.37;;;19.50;99.90;;;;;;5049459;28;20208;-67
2022/08/22 00:18:30;;;;;;;5.17;3.40;;;19.50;99.90;;;;;;5049555;28;20197;-68
2022/08/22 00:21:08;;;;;;;5.87;3.50;;;19.50;99.90;;;;;;5050121;28;20197;-68
2022/08/22 00:23:41;;;;;;;3.63;3.33;;;19.50;99.90;;;;;;5049089;28;20216;-68
2022/08/22 00:26:22;;;;;;;4.70;3.40;;;19.50;99.90;;;;;;5049799;28;20222;-69
2022/08/22 00:28:52;;;;;;;4.07;3.60;;;19.40;99.90;;;;;;5049528;28;20793;-69
2022/08/22 00:31:25;;;;;;;3.77;3.47;;;19.30;99.90;;;;;;5049453;28;20587;-69
2022/08/22 00:33:59;;;;;;;5.63;3.80;;;19.30;99.90;;;;;;5049907;28;20207;-69
2022/08/22 00:36:42;;;;;;;3.83;3.43;;;19.30;99.90;;;;;;5049806;28;20196;-69
2022/08/22 00:39:16;;;;;;;6.03;3.60;;;19.30;99.90;;;;;;5049098;28;20200;-70
2022/08/22 00:42:25;;;;;;;3.93;3.53;;;19.30;99.90;;;;;;5049336;28;20239;-71
2022/08/22 00:45:30;;;;;;;3.83;3.40;;;19.30;99.90;;;;;;5040812;28;20230;-70
2022/08/22 00:48:18;;;;;;;5.10;3.70;;;19.30;99.90;;;;;;5049223;28;20718;-71
2022/08/22 00:51:09;;;;;;;3.73;3.23;;;19.20;99.90;;;;;;5049242;28;20193;-70
2022/08/22 00:53:50;;;;;;;5.53;3.60;;;19.20;99.90;;;;;;5048936;28;20196;-68
2022/08/22 00:56:44;;;;;;;3.67;3.37;;;19.20;99.90;;;;;;5048815;28;20658;-68
2022/08/22 00:59:24;;;;;;;4.07;3.27;;;19.20;99.90;;;;;;5049359;28;20200;-68
2022/08/22 01:01:57;;;;;;;4.93;3.80;;;19.20;99.90;;;;;;5048917;28;20211;-68
2022/08/22 01:04:50;;;;;;;3.80;3.50;;;19.20;99.90;;;;;;5048695;28;20212;-69
2022/08/22 01:07:35;;;;;;;7.40;3.70;;;19.10;99.90;;;;;;5048650;28;20559;-68
2022/08/22 01:10:15;;;;;;;3.93;3.53;;;19.00;99.90;;;;;;5048769;28;20202;-69
2022/08/22 01:12:58;;;;;;;3.23;3.03;;;18.90;99.90;;;;;;5048367;28;20232;-68
2022/08/22 01:15:28;;;;;;;5.90;3.90;;;18.90;99.90;;;;;;5064580;28;20212;-68
2022/08/22 01:18:23;;;;;;;4.00;3.10;;;18.90;99.90;;;;;;5067194;28;20207;-68
2022/08/22 01:21:37;;;;;;;4.90;3.60;;;18.90;99.90;;;;;;5048446;28;20204;-68
2022/08/22 01:28:08;;;;;;;3.87;3.47;;;18.90;99.90;;;;;;5014897;28;20721;-68
2022/08/22 01:31:00;;;;;;;6.13;3.93;;;18.90;99.90;;;;;;5036781;28;20307;-68
2022/08/22 01:33:57;;;;;;;4.30;3.90;;;18.80;99.90;;;;;;5028260;28;20205;-68
2022/08/22 01:36:53;;;;;;;3.70;3.33;;;18.80;99.90;;;;;;5042676;28;20232;-69
2022/08/22 01:39:48;;;;;;;5.50;3.80;;;18.80;99.90;;;;;;5037359;28;20201;-68
2022/08/22 01:42:45;;;;;;;4.00;3.57;;;18.80;99.90;;;;;;5028596;28;20230;-68
2022/08/22 01:45:33;;;;;;;4.37;3.40;;;18.80;99.90;;;;;;5046507;28;20587;-68
2022/08/22 01:48:07;;;;;;;4.00;3.40;;;18.80;99.90;;;;;;5048170;28;20223;-68
2022/08/22 01:50:39;;;;;;;3.60;3.30;;;18.80;99.90;;;;;;5047746;28;20199;-68
2022/08/22 01:53:15;;;;;;;6.63;3.90;;;18.70;99.90;;;;;;5047709;28;20196;-68
2022/08/22 01:55:54;;;;;;;3.77;3.40;;;18.70;99.90;;;;;;5047733;28;20602;-68
2022/08/22 01:58:24;;;;;;;4.97;3.37;;;18.60;99.90;;;;;;5048122;28;20188;-68
2022/08/22 02:01:12;;;;;;;4.80;3.67;;;18.60;99.90;;;;;;5047794;28;20962;-68
2022/08/22 02:03:52;;;;;;;6.37;3.70;;;18.60;99.90;;;;;;5047816;28;20216;-68
2022/08/22 02:06:30;;;;;;;4.47;3.53;;;18.60;99.90;;;;;;5047916;28;20196;-68
2022/08/22 02:09:04;;;;;;;3.87;3.43;;;18.60;99.90;;;;;;5048173;28;20211;-68
2022/08/22 02:11:41;;;;;;;3.93;3.50;;;18.60;99.90;;;;;;5048185;28;20192;-69
2022/08/22 02:14:21;;;;;;;3.67;3.37;;;18.60;99.90;;;;;;5047989;28;20287;-70
2022/08/22 02:16:52;;;;;;;3.97;3.63;;;18.60;99.90;;;;;;5047561;28;20273;-69
2022/08/22 02:19:33;;;;;;;5.10;3.50;;;18.60;99.90;;;;;;5047733;28;20221;-69
2022/08/22 02:22:04;;;;;;;3.70;3.30;;;18.60;99.90;;;;;;5047863;28;20200;-68
2022/08/22 02:24:46;;;;;;;3.80;3.50;;;18.50;99.90;;;;;;5046673;28;20223;-68
2022/08/22 02:27:23;;;;;;;3.63;3.33;;;18.50;99.90;;;;;;5048073;28;20223;-67
2022/08/22 02:29:58;;;;;;;4.07;3.77;;;18.50;99.90;;;;;;5047374;28;20647;-67
2022/08/22 02:32:29;;;;;;;3.97;3.40;;;18.50;99.90;;;;;;5047359;28;20227;-67
2022/08/22 02:35:04;;;;;;;3.30;3.07;;;18.50;99.90;;;;;;5037086;28;20217;-67
2022/08/22 02:37:40;;;;;;;3.50;3.20;;;18.50;99.90;;;;;;5040160;28;20243;-67
2022/08/22 02:40:16;;;;;;;3.77;3.47;;;18.50;99.90;;;;;;5046058;28;20219;-67
2022/08/22 02:42:49;;;;;;;3.80;3.37;;;18.50;99.90;;;;;;5045268;28;20227;-67
2022/08/22 02:45:26;;;;;;;4.37;3.30;;;18.50;99.90;;;;;;5045142;28;20200;-67
2022/08/22 02:48:01;;;;;;;3.80;3.50;;;18.50;99.90;;;;;;5045509;28;20584;-67
2022/08/22 02:50:36;;;;;;;3.93;3.63;;;18.40;99.90;;;;;;5045301;28;20203;-67
2022/08/22 02:53:10;;;;;;;3.67;3.37;;;18.40;99.90;;;;;;5045594;28;20206;-67
2022/08/22 02:55:46;;;;;;;5.43;3.23;;;18.40;99.90;;;;;;5045160;28;20229;-67
2022/08/22 02:58:24;;;;;;;4.40;3.57;;;18.30;99.90;;;;;;5045184;28;20803;-67
2022/08/22 03:01:09;;;;;;;3.30;3.00;;;18.30;99.90;;;;;;5045161;28;20196;-68
2022/08/22 03:03:39;;;;;;;4.93;3.47;;;18.30;99.90;;;;;;5045178;28;20246;-68
2022/08/22 03:06:30;;;;;;;3.50;3.20;;;18.30;99.90;;;;;;5045097;28;20200;-67
2022/08/22 03:09:06;;;;;;;4.00;3.43;;;18.30;99.90;;;;;;5044532;28;20258;-67
2022/08/22 03:11:39;;;;;;;4.90;3.80;;;18.30;99.90;;;;;;5038785;28;20207;-67
2022/08/22 03:14:11;;;;;;;4.33;3.17;;;18.30;99.90;;;;;;5045794;28;20227;-67
2022/08/22 03:16:44;;;;;;;5.13;3.70;;;18.30;99.90;;;;;;5045914;28;20200;-67
2022/08/22 03:19:16;;;;;;;5.37;3.40;;;18.30;99.90;;;;;;5045936;28;20219;-67
2022/08/22 03:21:47;;;;;;;4.93;3.60;;;18.30;99.90;;;;;;5045964;28;20283;-67
2022/08/22 03:24:19;;;;;;;3.70;3.50;;;18.20;99.90;;;;;;5045360;28;20228;-67
2022/08/22 03:26:55;;;;;;;4.27;3.30;;;18.20;99.90;;;;;;5045710;28;20596;-67
2022/08/22 03:29:26;;;;;;;3.60;3.40;;;18.20;99.90;;;;;;5028833;28;20200;-67
2022/08/22 03:32:13;;;;;;;4.10;3.60;;;18.20;99.90;;;;;;5026689;28;20239;-67
2022/08/22 03:34:56;;;;;;;6.33;3.53;;;18.20;99.90;;;;;;5027314;28;20201;-67
2022/08/22 03:37:26;;;;;;;4.10;3.80;;;18.20;99.90;;;;;;5030529;28;20193;-67
2022/08/22 03:39:57;;;;;;;5.50;3.60;;;18.20;99.90;;;;;;5030224;28;20648;-67
2022/08/22 03:43:00;;;;;;;4.37;3.73;;;18.20;99.90;;;;;;5031971;28;20232;-67
2022/08/22 03:46:04;;;;;;;4.13;3.70;;;18.20;99.90;;;;;;5049126;28;20331;-67
2022/08/22 03:48:56;;;;;;;4.87;3.77;;;18.20;99.90;;;;;;5050167;28;20241;-68
2022/08/22 03:51:40;;;;;;;4.13;3.70;;;18.20;99.90;;;;;;5050411;28;20197;-67
2022/08/22 03:54:40;;;;;;;6.03;4.17;;;18.20;99.90;;;;;;5050400;28;20188;-67
2022/08/22 03:57:56;;;;;;;4.10;3.80;;;18.20;99.90;;;;;;5050057;28;20703;-67
2022/08/22 04:01:04;;;;;;;3.60;3.40;;;18.20;99.90;;;;;;5049924;28;20192;-67
2022/08/22 04:04:10;;;;;;;4.03;3.50;;;18.20;99.90;;;;;;5009918;28;20231;-67
2022/08/22 04:07:13;;;;;;;5.00;3.40;;;18.20;99.90;;;;;;5050248;28;20207;-67
2022/08/22 04:10:21;;;;;;;4.87;3.67;;;18.20;99.90;;;;;;5049785;28;20228;-67
2022/08/22 04:13:04;;;;;;;4.87;3.80;;;18.10;99.90;;;;;;5049084;28;20212;-67
2022/08/22 04:15:56;;;;;;;4.47;3.80;;;18.20;99.90;;;;;;5049351;28;20720;-67
2022/08/22 04:18:56;;;;;;;5.63;4.20;;;18.10;99.90;;;;;;5049467;28;20726;-67
2022/08/22 04:21:48;;;;;;;6.43;4.23;;;18.10;99.90;;;;;;5049872;28;20208;-67
2022/08/22 04:24:36;;;;;;;6.17;4.53;;;18.10;99.90;;;;;;5049362;28;20219;-67
2022/08/22 04:27:10;;;;;;;7.40;5.03;;;18.10;99.90;;;;;;5049691;28;20659;-67
2022/08/22 04:29:42;;;;;;;9.57;4.73;;;18.10;99.90;;;;;;5049749;28;20205;-67
2022/08/22 04:32:14;;;;;;;7.60;5.10;;;18.10;99.90;;;;;;5049659;28;20200;-67
2022/08/22 04:34:50;;;;;;;6.43;4.87;;;18.10;99.90;;;;;;5049590;28;20615;-67
2022/08/22 04:37:23;;;;;;;5.23;4.73;;;18.20;99.90;;;;;;5049614;28;20282;-67
2022/08/22 04:39:57;;;;;;;7.80;4.90;;;18.20;99.90;;;;;;5049406;28;20200;-67
2022/08/22 04:42:31;;;;;;;8.00;4.87;;;18.20;99.90;;;;;;5047228;28;20240;-67
2022/08/22 04:45:05;;;;;;;5.80;4.20;;;18.10;99.90;;;;;;5029590;28;20196;-67
2022/08/22 04:47:36;;;;;;;4.67;4.23;;;18.20;99.90;;;;;;5028570;28;20208;-67
2022/08/22 04:50:13;;;;;;;9.77;4.73;;;18.20;99.90;;;;;;5029561;28;20191;-67
2022/08/22 04:53:02;;;;;;;7.43;4.30;;;18.20;99.90;;;;;;5029322;28;20199;-67
2022/08/22 04:55:34;;;;;;;4.73;4.23;;;18.20;99.90;;;;;;5028885;28;20221;-67
2022/08/22 04:58:12;;;;;;;5.53;4.00;;;18.20;99.90;;;;;;5029307;28;20197;-67
2022/08/22 05:00:44;;;;;;;5.83;4.30;;;18.20;99.90;;;;;;5028744;28;20197;-67
2022/08/22 05:03:16;;;;;;;5.80;4.37;;;18.20;99.90;;;;;;5029275;28;20228;-67
2022/08/22 05:05:48;;;;;;;4.87;4.37;;;18.30;99.90;;;;;;5039658;28;20211;-67
2022/08/22 05:08:21;;;;;;;6.40;4.03;;;18.30;99.90;;;;;;5048869;28;20196;-67
2022/08/22 05:10:50;;;;;;;5.63;4.40;;;18.30;99.90;;;;;;5054074;28;20200;-67
2022/08/22 05:13:22;;;;;;;5.20;4.40;;;18.30;99.90;;;;;;5058781;28;20212;-67
2022/08/22 05:15:53;;;;;;;4.93;4.53;;;18.30;99.90;;;;;;5048003;28;20224;-67
2022/08/22 05:18:23;;;;;;;8.37;4.97;;;18.30;99.90;;;;;;5048681;28;20212;-67
2022/08/22 05:20:54;;;;;;;5.57;4.70;;;18.40;99.90;;;;;;5048416;28;20213;-67
2022/08/22 05:23:26;;;;;;;8.97;4.70;;;18.40;99.90;;;;;;5047964;28;20719;-67
2022/08/22 05:25:58;;;;;;;5.90;4.83;;;18.40;99.90;;;;;;5048559;28;20576;-68
2022/08/22 05:28:32;;;;;;;5.97;5.10;;;18.40;99.90;;;;;;5048212;28;20639;-67
2022/08/22 05:31:05;;;;;;;8.40;4.90;;;18.30;99.90;;;;;;5048343;28;20230;-67
2022/08/22 05:33:36;;;;;;;5.60;4.57;;;18.40;99.90;;;;;;5048363;28;20196;-67
2022/08/22 05:36:12;;;;;;;7.77;4.90;;;18.40;99.90;;;;;;5048504;28;20661;-68
2022/08/22 05:38:45;;;;;;;6.87;4.70;;;18.40;99.90;;;;;;5048029;28;20219;-67
2022/08/22 05:41:19;;;;;;;8.90;5.47;;;18.50;99.90;;;;;;5047964;28;20685;-68
2022/08/22 05:43:48;;;;;;;6.87;5.33;;;18.50;99.90;;;;;;5035018;28;20205;-67
2022/08/22 05:46:21;;;;;;;5.90;5.30;;;18.50;99.90;;;;;;5027778;28;20867;-67
2022/08/22 05:48:55;;;;;;;7.67;4.90;;;18.50;99.90;;;;;;5028378;28;20192;-67
2022/08/22 05:51:29;;;;;;;6.03;5.17;;;18.50;99.90;;;;;;5028250;28;20193;-67
2022/08/22 05:54:07;;;;;;;6.83;5.83;;;18.60;99.90;;;;;;5028271;28;20197;-67
2022/08/22 05:56:38;;;;;;;8.53;5.43;;;18.60;99.90;;;;;;5028309;28;20199;-68
2022/08/22 05:59:14;;;;;;;10.90;5.90;;;18.70;99.90;;;;;;5028150;28;20206;-67
2022/08/22 06:01:51;;;;;;;9.67;6.40;;;18.70;99.90;;;;;;5036226;28;20200;-67
2022/08/22 06:04:26;;;;;;;9.37;6.70;;;18.70;99.90;;;;;;5048096;28;20269;-67
2022/08/22 06:06:58;;;;;;;13.63;6.37;;;18.80;99.90;;;;;;5048215;28;20196;-67
2022/08/22 06:09:32;;;;;;;8.77;5.83;;;18.70;99.90;;;;;;5047914;28;20283;-67
2022/08/22 06:12:03;;;;;;;8.17;6.23;;;18.70;99.90;;;;;;5048103;28;20207;-67
2022/08/22 06:14:37;;;;;;;5.90;5.30;;;18.70;99.90;;;;;;5047463;28;20227;-68
2022/08/22 06:17:07;;;;;;;8.27;5.37;;;18.80;99.90;;;;;;5047478;28;20204;-68
2022/08/22 06:19:39;;;;;;;6.73;6.10;;;18.80;99.90;;;;;;5047772;28;20200;-67
2022/08/22 06:22:07;;;;;;;7.13;5.63;;;18.80;99.90;;;;;;5047756;28;20192;-67
2022/08/22 06:24:36;;;;;;;7.90;5.70;;;18.90;99.90;;;;;;5027772;28;20215;-67
2022/08/22 06:27:07;;;;;;;9.73;5.30;;;18.80;99.90;;;;;;5027662;28;20849;-68
2022/08/22 06:29:38;;;;;;;5.90;5.40;;;18.90;99.90;;;;;;5027636;28;20284;-67
2022/08/22 06:32:12;;;;;;;8.50;5.80;;;18.90;99.90;;;;;;5027342;28;20677;-67
2022/08/22 06:34:42;;;;;;;8.73;5.73;;;19.00;99.90;;;;;;5027843;28;20221;-67
2022/08/22 06:37:15;;;;;;;10.57;6.33;;;19.00;99.90;;;;;;5027668;28;20580;-67
2022/08/22 06:39:45;;;;;;;14.47;5.93;;;19.10;99.90;;;;;;5027395;28;20200;-67
2022/08/22 06:42:14;;;;;;;9.73;6.27;;;19.10;99.90;;;;;;5027100;28;20236;-67
2022/08/22 06:44:47;;;;;;;8.50;6.70;;;19.20;99.90;;;;;;5027767;28;20576;-67
2022/08/22 06:47:17;;;;;;;11.17;6.77;;;19.30;99.90;;;;;;5027197;28;20283;-67
2022/08/22 06:49:45;;;;;;;11.20;6.40;;;19.30;99.90;;;;;;5027588;28;20254;-67
2022/08/22 06:52:19;;;;;;;8.80;6.70;;;19.40;99.90;;;;;;5027139;28;20208;-67
2022/08/22 06:54:48;;;;;;;13.67;6.83;;;19.50;99.90;;;;;;5027116;28;20232;-67
2022/08/22 06:57:27;;;;;;;12.63;6.87;;;19.50;99.90;;;;;;5029742;28;20299;-67
2022/08/22 06:59:55;;;;;;;14.93;7.30;;;19.50;99.90;;;;;;5046969;28;20290;-67
2022/08/22 07:02:27;;;;;;;8.23;6.13;;;19.60;99.90;;;;;;5047005;28;20216;-67
2022/08/22 07:04:54;;;;;;;8.93;6.57;;;19.60;99.90;;;;;;5047402;28;20200;-67
2022/08/22 07:07:26;;;;;;;19.60;7.40;;;19.60;99.90;;;;;;5047017;28;20215;-68
2022/08/22 07:09:56;;;;;;;9.63;7.03;;;19.70;99.90;;;;;;5047344;28;20196;-67
2022/08/22 07:12:29;;;;;;;12.67;8.00;;;19.70;99.90;;;;;;5050923;28;20204;-67
2022/08/22 07:15:00;;;;;;;13.30;6.37;;;19.80;99.90;;;;;;5050835;28;20698;-67
2022/08/22 07:17:31;;;;;;;12.97;6.33;;;19.80;99.90;;;;;;5050590;28;20193;-68
2022/08/22 07:20:09;;;;;;;10.00;6.27;;;19.90;99.90;;;;;;5051014;28;20193;-67
2022/08/22 07:22:38;;;;;;;14.93;6.60;;;19.90;99.90;;;;;;5050408;28;20726;-67
2022/08/22 07:25:09;;;;;;;13.27;6.87;;;19.90;99.90;;;;;;5050907;28;20204;-67
2022/08/22 07:27:53;;;;;;;12.33;6.77;;;20.00;99.90;;;;;;5050890;28;20663;-67
2022/08/22 07:30:23;;;;;;;9.00;5.80;;;20.10;99.90;;;;;;5050249;28;20220;-67
2022/08/22 07:32:55;;;;;;;11.03;5.80;;;20.10;99.90;;;;;;5050626;28;20215;-68
2022/08/22 07:35:26;;;;;;;11.93;6.03;;;20.20;99.90;;;;;;5050390;28;20632;-68
2022/08/22 07:38:04;;;;;;;8.50;6.00;;;20.20;99.90;;;;;;5050496;28;20275;-67
2022/08/22 07:40:39;;;;;;;9.57;6.17;;;20.30;99.90;;;;;;5050439;28;20196;-68
2022/08/22 07:43:17;;;;;;;12.70;6.63;;;20.30;99.90;;;;;;5050591;28;20230;-68
2022/08/22 07:45:50;;;;;;;11.73;5.80;;;20.40;99.90;;;;;;5050158;28;20291;-68
2022/08/22 07:48:23;;;;;;;9.33;5.93;;;20.50;99.90;;;;;;5050166;28;20192;-68
2022/08/22 07:50:59;;;;;;;17.30;6.23;;;20.50;99.90;;;;;;5050324;28;20196;-68
2022/08/22 07:53:34;;;;;;;16.23;7.17;;;20.60;99.90;;;;;;5049736;28;20196;-68
2022/08/22 07:56:04;;;;;;;11.37;5.70;;;20.60;99.90;;;;;;5030342;28;20224;-68
2022/08/22 07:58:35;;;;;;;12.70;5.63;;;20.60;99.90;;;;;;5029945;28;20193;-68
2022/08/22 08:01:04;;;;;;;14.83;6.27;;;20.70;99.90;;;;;;5030197;28;20211;-68
2022/08/22 08:03:31;;;;;;;14.30;6.00;;;20.70;99.90;;;;;;5030204;28;20204;-68
2022/08/22 08:06:01;;;;;;;10.20;5.50;;;20.80;99.90;;;;;;5030206;28;20235;-68
2022/08/22 08:08:33;;;;;;;7.33;5.03;;;20.80;99.90;;;;;;5030146;28;20289;-67
2022/08/22 08:11:05;;;;;;;8.40;4.93;;;20.90;99.90;;;;;;5030095;28;20201;-68
2022/08/22 08:13:35;;;;;;;12.47;5.70;;;20.90;99.90;;;;;;5031686;28;20232;-68
2022/08/22 08:16:07;;;;;;;10.07;4.00;;;20.90;99.90;;;;;;5049237;28;20243;-68
2022/08/22 08:18:37;;;;;;;10.77;4.67;;;21.00;99.90;;;;;;5049983;28;20598;-68
2022/08/22 08:21:24;;;;;;;10.30;4.03;;;21.00;99.90;;;;;;5049667;28;20946;-67
2022/08/22 08:23:53;;;;;;;8.63;4.40;;;21.00;99.90;;;;;;5049729;28;20235;-67
2022/08/22 08:26:24;;;;;;;9.80;5.13;;;21.10;99.90;;;;;;5049929;28;20214;-67
2022/08/22 08:28:53;;;;;;;14.83;5.43;;;21.10;99.90;;;;;;5049821;28;20204;-67
2022/08/22 08:31:24;;;;;;;15.43;5.47;;;21.20;99.90;;;;;;5049424;28;20278;-67
2022/08/22 08:34:00;;;;;;;12.33;5.10;;;21.20;99.90;;;;;;5049722;28;20291;-67
2022/08/22 08:36:47;;;;;;;14.18;4.70;;;21.30;99.90;;;;;;5049661;28;20234;-68
2022/08/22 08:39:23;;;;;;;13.65;4.90;;;21.30;99.90;;;;;;5049255;28;20200;-68
2022/08/22 08:42:22;;;;;;;10.10;4.60;;;21.40;99.90;;;;;;5049353;28;20278;-67
2022/08/22 08:45:24;;;;;;;8.17;4.07;;;21.40;99.90;;;;;;5029228;28;20193;-67
2022/08/22 08:48:19;;;;;;;8.63;3.63;;;21.50;99.90;;;;;;4948406;29;20227;-67
2022/08/22 08:50:58;;;;;;;3.30;2.80;;;21.60;99.90;;;;;;5040376;28;20222;-67
2022/08/22 08:54:09;;;;;;;6.28;3.20;;;21.60;99.90;;;;;;5049138;28;20192;-68
2022/08/22 08:56:47;;;;;;;7.13;2.83;;;21.70;99.90;;;;;;5049378;28;20224;-68
2022/08/22 08:59:26;;;;;;;4.80;2.85;;;21.80;99.90;;;;;;5049143;28;20202;-67
2022/08/22 09:02:21;;;;;;;2.80;2.40;;;21.70;99.90;;;;;;5048826;28;20200;-68
2022/08/22 09:05:24;;;;;;;5.63;2.60;;;21.90;99.90;;;;;;5048572;28;20978;-67
2022/08/22 09:08:41;;;;;;;2.70;2.30;;;21.90;99.90;;;;;;5048610;28;20192;-67
2022/08/22 09:11:45;;;;;;;6.28;2.50;;;22.00;99.90;;;;;;5048532;28;20561;-67
2022/08/22 09:14:26;;;;;;;3.67;2.60;;;22.10;99.90;;;;;;5023114;28;20688;-68
2022/08/22 09:17:18;;;;;;;2.45;1.98;;;22.10;99.90;;;;;;5048696;28;20224;-67
2022/08/22 09:20:22;;;;;;;3.00;1.88;;;22.20;99.90;;;;;;5048782;28;20653;-67
2022/08/22 09:23:30;;;;;;;4.32;2.00;;;22.30;99.90;;;;;;5048272;28;20706;-68
2022/08/22 09:26:05;;;;;;;5.47;2.05;;;22.40;99.90;;;;;;5048602;28;20212;-67
2022/08/22 09:28:38;;;;;;;6.25;2.00;;;22.40;99.90;;;;;;5048117;28;20717;-67
2022/08/22 09:31:28;;;;;;;3.47;2.15;;;22.50;99.90;;;;;;5048097;28;20224;-67
2022/08/22 09:34:00;;;;;;;4.32;2.20;;;22.50;99.90;;;;;;5047927;28;20188;-67
2022/08/22 09:36:32;;;;;;;5.35;1.95;;;22.60;99.90;;;;;;5048095;28;20224;-68
2022/08/22 09:39:05;;;;;;;7.45;2.20;;;22.60;99.90;;;;;;5047886;28;20201;-68
2022/08/22 09:41:40;;;;;;;3.58;1.77;;;22.70;99.90;;;;;;5047794;28;20246;-68
2022/08/22 09:44:16;;;;;;;4.38;2.17;;;22.70;99.90;;;;;;5032493;28;20231;-68
2022/08/22 09:46:55;;;;;;;6.60;1.88;;;22.80;99.90;;;;;;5036361;28;20213;-69
2022/08/22 09:49:31;;;;;;;4.63;2.00;;;22.90;99.90;;;;;;5047993;28;20199;-68
2022/08/22 09:52:05;;;;;;;3.20;1.73;;;23.00;99.90;;;;;;5048198;28;20188;-68
2022/08/22 09:54:37;;;;;;;3.17;1.90;;;23.00;99.90;;;;;;5047986;28;20620;-68
2022/08/22 09:57:23;;;;;;;4.20;1.88;;;23.10;99.90;;;;;;5047959;28;20217;-68
2022/08/22 10:00:14;;;;;;;2.58;2.00;;;23.10;99.90;;;;;;5047926;28;20196;-68
2022/08/22 10:02:58;;;;;;;2.65;1.63;;;23.20;99.90;;;;;;5033899;28;20204;-68
2022/08/22 10:05:29;;;;;;;1.98;1.58;;;23.20;99.90;;;;;;5028009;28;20207;-68
2022/08/22 10:08:14;;;;;;;5.30;1.95;;;23.20;99.90;;;;;;5045234;28;20196;-68
2022/08/22 10:11:06;;;;;;;17.52;3.50;;;23.30;99.90;;;;;;5048016;28;20192;-68
2022/08/22 10:13:43;;;;;;;2.83;2.00;;;23.30;99.90;;;;;;5035631;28;20678;-68
2022/08/22 10:16:21;;;;;;;3.88;1.88;;;23.30;99.90;;;;;;5047569;28;20227;-68
2022/08/22 10:18:56;;;;;;;7.88;2.20;;;23.40;99.90;;;;;;5047476;28;20200;-68
2022/08/22 10:21:31;;;;;;;4.38;1.83;;;23.40;99.90;;;;;;5047755;28;20196;-68
2022/08/22 10:24:02;;;;;;;5.10;2.00;;;23.50;99.90;;;;;;5047473;28;20745;-68
2022/08/22 10:26:34;;;;;;;4.07;1.75;;;23.60;99.90;;;;;;5047656;28;20203;-68
2022/08/22 10:29:28;;;;;;;8.85;2.22;;;23.60;99.90;;;;;;5047822;28;20204;-68
2022/08/22 10:32:00;;;;;;;3.25;1.88;;;23.70;99.90;;;;;;5047069;28;20208;-68
2022/08/22 10:34:35;;;;;;;3.78;1.92;;;23.80;99.90;;;;;;5047552;28;20537;-68
2022/08/22 10:37:11;;;;;;;3.10;1.80;;;23.80;99.90;;;;;;5047494;28;20223;-68
2022/08/22 10:39:44;;;;;;;3.95;2.13;;;23.90;99.90;;;;;;5047392;28;20192;-68
2022/08/22 10:42:27;;;;;;;4.15;1.80;;;24.00;99.90;;;;;;5046919;28;20748;-68
2022/08/22 10:45:12;;;;;;;3.42;1.58;;;24.00;99.90;;;;;;5028180;28;20193;-68
2022/08/22 10:48:01;;;;;;;3.58;1.70;;;24.10;99.90;;;;;;5031931;28;20201;-68
2022/08/22 10:50:33;;;;;;;3.78;1.83;;;24.20;99.90;;;;;;5031011;28;20212;-68
2022/08/22 10:55:48;;;;;;;4.30;1.70;;;24.30;99.90;;;;;;5030323;28;20236;-67
2022/08/22 10:58:24;;;;;;;5.10;1.80;;;24.50;99.90;;;;;;5039974;28;20295;-68
2022/08/22 11:00:54;;;;;;;4.55;1.70;;;24.60;99.90;;;;;;5051041;28;20196;-68
2022/08/22 11:03:26;;;;;;;5.25;1.75;;;24.80;99.90;;;;;;5051140;28;20218;-68
2022/08/22 11:05:59;;;;;;;3.95;1.92;;;24.80;99.90;;;;;;5050987;28;20200;-68
2022/08/22 11:08:38;;;;;;;4.22;1.98;;;24.80;99.90;;;;;;5051028;28;20222;-68
2022/08/22 11:11:37;;;;;;;3.50;2.30;;;24.80;99.90;;;;;;5051274;28;20196;-68
2022/08/22 11:14:27;;;;;;;6.18;1.85;;;24.90;99.90;;;;;;5051097;28;20243;-68
2022/08/22 11:17:10;;;;;;;2.28;1.83;;;24.90;99.90;;;;;;5050889;28;20270;-68
2022/08/22 11:19:56;;;;;;;4.55;1.58;;;25.00;99.90;;;;;;5050977;28;20219;-68
2022/08/22 11:22:31;;;;;;;2.22;1.52;;;25.00;99.90;;;;;;5050963;28;20232;-68
2022/08/22 11:25:30;;;;;;;3.03;1.73;;;25.10;99.90;;;;;;5050922;28;20211;-68
2022/08/22 11:28:24;;;;;;;4.07;1.50;;;25.10;99.90;;;;;;5035338;28;20291;-68
2022/08/22 11:31:04;;;;;;;6.03;2.10;;;25.10;99.90;;;;;;5050613;28;20227;-68
2022/08/22 11:33:38;;;;;;;2.38;1.60;;;25.20;99.90;;;;;;5050573;28;20199;-68
2022/08/22 11:36:20;;;;;;;6.70;2.03;;;25.30;99.90;;;;;;5050393;28;20215;-68
2022/08/22 11:38:58;;;;;;;2.95;1.42;;;25.40;99.90;;;;;;5050102;28;20247;-68
2022/08/22 11:41:29;;;;;;;3.35;1.55;;;25.50;99.90;;;;;;5050180;28;20232;-68
2022/08/22 11:44:01;;;;;;;5.28;1.90;;;25.60;99.90;;;;;;5050335;28;20216;-68
2022/08/22 11:46:31;;;;;;;5.40;1.60;;;25.80;99.90;;;;;;5050174;28;20696;-68
2022/08/22 11:49:12;;;;;;;1.90;1.60;;;25.80;99.90;;;;;;5050465;28;20212;-68
2022/08/22 11:52:01;;;;;;;3.15;1.77;;;26.00;99.90;;;;;;5050499;28;20203;-68
2022/08/22 11:54:39;;;;;;;2.85;1.50;;;26.00;99.90;;;;;;5041997;28;20236;-69
2022/08/22 11:57:10;;;;;;;1.77;1.27;;;26.10;99.90;;;;;;5030016;28;20227;-68
2022/08/22 12:00:00;;;;;;;4.72;1.70;;;26.20;99.80;;;;;;5040342;28;20215;-68
2022/08/22 12:02:32;;;;;;;2.42;1.63;;;26.10;98.60;;;;;;5050030;28;20196;-68
2022/08/22 12:05:09;;;;;;;6.05;1.75;;;26.10;98.60;;;;;;5049986;28;20192;-68
2022/08/22 12:07:39;;;;;;;1.85;1.50;;;26.10;98.90;;;;;;5050172;28;20188;-68
2022/08/22 12:10:14;;;;;;;3.13;1.73;;;26.10;98.40;;;;;;5050702;28;20600;-68
2022/08/22 12:12:54;;;;;;;2.05;1.70;;;26.20;98.50;;;;;;5049928;28;20215;-68
2022/08/22 12:15:24;;;;;;;9.10;2.40;;;26.10;97.50;;;;;;5049913;28;20559;-68
2022/08/22 12:18:23;;;;;;;2.35;1.45;;;26.10;97.70;;;;;;5050144;28;20330;-68
2022/08/22 12:21:43;;;;;;;2.50;1.77;;;26.10;97.90;;;;;;5050127;28;20195;-68
2022/08/22 12:24:45;;;;;;;4.50;1.80;;;26.10;98.20;;;;;;5046312;28;20204;-68
2022/08/22 12:27:37;;;;;;;3.25;1.73;;;26.10;98.70;;;;;;4968457;28;20221;-68
2022/08/22 12:30:17;;;;;;;4.72;2.05;;;26.30;98.70;;;;;;4993697;28;20240;-68
2022/08/22 12:33:25;;;;;;;3.88;1.90;;;26.40;98.30;;;;;;5049609;28;20384;-68
2022/08/22 12:36:04;;;;;;;4.18;1.58;;;26.40;97.10;;;;;;5049176;28;20214;-68
2022/08/22 12:38:46;;;;;;;3.15;1.42;;;26.40;96.70;;;;;;5049508;28;20203;-68
2022/08/22 12:41:49;;;;;;;3.90;1.50;;;26.40;97.40;;;;;;5049369;28;20241;-68
2022/08/22 12:44:28;;;;;;;2.28;1.75;;;26.50;97.30;;;;;;5023334;28;20840;-68
2022/08/22 12:47:15;;;;;;;3.08;1.70;;;26.60;97.40;;;;;;5049079;28;20203;-68
2022/08/22 12:50:15;;;;;;;1.70;1.52;;;26.70;97.90;;;;;;5049003;28;20215;-68
2022/08/22 12:53:02;;;;;;;3.08;1.80;;;26.70;97.50;;;;;;5024687;28;20209;-68
2022/08/22 12:55:44;;;;;;;1.85;1.70;;;26.70;97.40;;;;;;5036572;28;20216;-68
2022/08/22 12:58:23;;;;;;;18.00;2.60;;;26.80;97.30;;;;;;5049174;28;20230;-68
2022/08/22 13:00:51;;;;;;;10.80;2.30;;;26.80;97.20;;;;;;5048931;28;20198;-68
2022/08/22 13:03:24;;;;;;;6.03;1.95;;;26.90;97.40;;;;;;5048848;28;20204;-69
2022/08/22 13:05:53;;;;;;;2.47;1.75;;;26.90;96.70;;;;;;5048786;28;20196;-68
2022/08/22 13:08:26;;;;;;;3.50;1.73;;;27.10;97.30;;;;;;5047711;28;20212;-68
2022/08/22 13:10:59;;;;;;;3.45;1.90;;;27.20;97.30;;;;;;5048651;28;20192;-68
2022/08/22 13:13:31;;;;;;;3.42;1.88;;;27.30;96.80;;;;;;5048879;28;20212;-68
2022/08/22 13:16:04;;;;;;;3.42;1.70;;;27.40;96.90;;;;;;5048574;28;20287;-68
2022/08/22 13:18:36;;;;;;;5.25;2.28;;;27.40;97.00;;;;;;5048948;28;20204;-68
2022/08/22 13:21:11;;;;;;;1.60;1.50;;;27.20;96.70;;;;;;5048877;28;20189;-68
2022/08/22 13:23:42;;;;;;;6.03;1.60;;;27.20;96.60;;;;;;5048296;28;20674;-68
2022/08/22 13:26:14;;;;;;;1.70;1.60;;;27.20;96.30;;;;;;5048668;28;20196;-68
2022/08/22 13:28:45;;;;;;;2.20;1.60;;;27.20;96.10;;;;;;5048462;28;20207;-68
2022/08/22 13:31:24;;;;;;;2.25;1.70;;;27.20;96.40;;;;;;5048015;28;20228;-68
2022/08/22 13:33:53;;;;;;;2.03;1.58;;;27.20;96.70;;;;;;5048639;28;20196;-68
2022/08/22 13:36:22;;;;;;;2.45;1.50;;;27.10;96.80;;;;;;5048171;28;20204;-68
2022/08/22 13:38:56;;;;;;;3.67;1.75;;;27.00;96.80;;;;;;5047808;28;20207;-68
2022/08/22 13:41:28;;;;;;;3.80;1.80;;;26.90;96.80;;;;;;5047043;28;20236;-68
2022/08/22 13:44:16;;;;;;;3.00;1.85;;;26.80;97.40;;;;;;5048291;28;20579;-67
2022/08/22 13:46:47;;;;;;;2.40;1.83;;;26.60;97.30;;;;;;5047852;28;20685;-67
2022/08/22 13:49:19;;;;;;;2.25;1.90;;;26.50;97.60;;;;;;5048386;28;20239;-67
2022/08/22 13:51:50;;;;;;;4.03;1.88;;;26.40;97.50;;;;;;5043626;28;20212;-67